createdAt,value
2019-02-26T00:01:00.128Z,56.54
2019-02-26T00:03:31.445Z,56.76
2019-02-26T00:06:07.836Z,56.86
2019-02-26T00:08:43.146Z,57.17
2019-02-26T00:11:13.328Z,57.37
2019-02-26T00:13:43.525Z,57.54
2019-02-26T00:16:15.795Z,57.14
2019-02-26T00:18:48.840Z,57.17
2019-02-26T00:21:20.411Z,57.34
2019-02-26T00:23:53.061Z,57.05
2019-02-26T00:26:22.811Z,56.91
2019-02-26T00:32:23.528Z,57.56
2019-02-26T00:34:55.713Z,57.88
2019-02-26T00:37:26.374Z,57.55
2019-02-26T00:39:57.085Z,57.52
2019-02-26T00:42:28.836Z,57.71
2019-02-26T00:45:01.034Z,58.10
2019-02-26T00:47:34.063Z,57.84
2019-02-26T00:50:07.318Z,57.45
2019-02-26T00:52:39.210Z,58.34
2019-02-26T00:55:09.698Z,58.17
2019-02-26T00:58:00.718Z,57.88
2019-02-26T01:00:30.861Z,58.28
2019-02-26T01:03:03.481Z,58.85
2019-02-26T01:05:40.755Z,58.18
2019-02-26T01:08:12.849Z,58.33
2019-02-26T01:10:43.672Z,58.21
2019-02-26T01:13:24.842Z,58.49
2019-02-26T01:16:13.371Z,58.50
2019-02-26T01:18:44.378Z,58.90
2019-02-26T01:21:15.483Z,58.14
2019-02-26T01:23:45.669Z,58.84
2019-02-26T01:26:15.882Z,59.21
2019-02-26T01:28:48.313Z,58.90
2019-02-26T01:31:19.820Z,59.09
2019-02-26T01:33:50.901Z,59.17
2019-02-26T01:36:23.719Z,59.72
2019-02-26T01:38:53.667Z,60.05
2019-02-26T01:41:33.804Z,60.19
2019-02-26T01:44:03.987Z,60.00
2019-02-26T01:46:36.596Z,59.84
2019-02-26T01:49:07.021Z,60.00
2019-02-26T01:51:37.206Z,60.14
2019-02-26T01:54:10.350Z,60.31
2019-02-26T01:57:09.136Z,60.39
2019-02-26T01:59:38.837Z,60.16
2019-02-26T02:02:12.166Z,60.77
2019-02-26T02:04:41.613Z,61.44
2019-02-26T02:07:13.862Z,61.91
2019-02-26T02:09:46.554Z,61.25
2019-02-26T02:12:15.933Z,61.47
2019-02-26T02:14:46.104Z,61.62
2019-02-26T02:17:17.212Z,61.28
2019-02-26T02:20:08.412Z,60.67
2019-02-26T02:22:40.383Z,60.86
2019-02-26T02:25:31.413Z,60.71
2019-02-26T02:28:02.701Z,60.95
2019-02-26T02:30:38.866Z,60.38
2019-02-26T02:33:17.286Z,60.49
2019-02-26T02:36:09.729Z,60.73
2019-02-26T02:38:40.889Z,61.12
2019-02-26T02:41:11.073Z,60.52
2019-02-26T02:43:41.274Z,61.11
2019-02-26T02:46:15.549Z,61.23
2019-02-26T02:48:45.744Z,61.59
2019-02-26T02:51:15.954Z,61.62
2019-02-26T02:53:47.822Z,61.77
2019-02-26T02:56:18.917Z,61.84
2019-02-26T02:58:51.526Z,61.91
2019-02-26T03:01:22.989Z,62.50
2019-02-26T03:03:53.850Z,62.16
2019-02-26T03:06:27.243Z,62.58
2019-02-26T03:08:56.626Z,62.92
2019-02-26T03:11:26.838Z,63.02
2019-02-26T03:13:57.048Z,62.28
2019-02-26T03:16:27.263Z,62.62
2019-02-26T03:18:57.471Z,62.67
2019-02-26T03:21:28.643Z,62.92
2019-02-26T03:24:00.876Z,62.55
2019-02-26T03:26:31.453Z,62.66
2019-02-26T03:29:01.652Z,61.94
2019-02-26T03:31:34.917Z,61.97
2019-02-26T03:34:08.681Z,62.71
2019-02-26T03:36:38.255Z,62.30
2019-02-26T03:39:07.574Z,63.04
2019-02-26T03:42:14.177Z,62.29
2019-02-26T03:44:46.931Z,62.70
2019-02-26T03:47:18.634Z,62.61
2019-02-26T03:49:48.294Z,62.46
2019-02-26T03:52:18.472Z,62.62
2019-02-26T03:54:50.735Z,62.66
2019-02-26T03:57:22.707Z,62.68
2019-02-26T04:00:20.066Z,62.79
2019-02-26T04:02:51.556Z,62.75
2019-02-26T04:05:21.582Z,62.56
2019-02-26T04:07:53.275Z,62.52
2019-02-26T04:10:23.669Z,62.73
2019-02-26T04:12:55.360Z,63.01
2019-02-26T04:15:27.887Z,62.90
2019-02-26T04:18:15.982Z,62.75
2019-02-26T04:20:46.254Z,63.04
2019-02-26T04:23:19.916Z,63.30
2019-02-26T04:25:54.174Z,63.56
2019-02-26T04:28:33.048Z,63.17
2019-02-26T04:31:26.753Z,63.87
2019-02-26T04:34:15.399Z,63.60
2019-02-26T04:37:04.785Z,63.46
2019-02-26T04:39:47.602Z,63.04
2019-02-26T04:42:48.310Z,63.52
2019-02-26T04:45:31.768Z,63.33
2019-02-26T04:48:17.169Z,62.89
2019-02-26T04:50:45.888Z,62.95
2019-02-26T04:53:16.092Z,63.41
2019-02-26T04:55:46.281Z,63.32
2019-02-26T04:58:18.350Z,63.45
2019-02-26T05:00:58.275Z,63.83
2019-02-26T05:03:34.528Z,63.74
2019-02-26T05:06:15.329Z,63.67
2019-02-26T05:09:00.138Z,63.72
2019-02-26T05:11:43.643Z,63.77
2019-02-26T05:14:23.531Z,63.69
2019-02-26T05:17:03.777Z,63.27
2019-02-26T05:19:36.261Z,63.71
2019-02-26T05:22:10.093Z,63.98
2019-02-26T05:24:42.393Z,64.31
2019-02-26T05:27:19.700Z,64.34
2019-02-26T05:29:52.430Z,64.33
2019-02-26T05:32:29.413Z,64.27
2019-02-26T05:34:58.622Z,64.47
2019-02-26T05:37:37.382Z,64.26
2019-02-26T05:40:12.165Z,63.86
2019-02-26T05:42:39.489Z,64.11
2019-02-26T05:45:09.756Z,64.01
2019-02-26T05:47:39.953Z,64.33
2019-02-26T05:50:16.320Z,64.40
2019-02-26T05:52:58.948Z,64.69
2019-02-26T05:55:41.635Z,64.49
2019-02-26T05:58:15.161Z,64.86
2019-02-26T06:00:42.796Z,64.65
2019-02-26T06:03:16.338Z,64.43
2019-02-26T06:05:48.879Z,64.59
2019-02-26T06:08:18.703Z,64.46
2019-02-26T06:10:55.143Z,64.56
2019-02-26T06:13:25.337Z,64.64
2019-02-26T06:15:58.603Z,64.20
2019-02-26T06:18:27.430Z,64.85
2019-02-26T06:20:58.606Z,65.53
2019-02-26T06:23:31.747Z,65.08
2019-02-26T06:26:04.903Z,65.18
2019-02-26T06:28:38.044Z,64.97
2019-02-26T06:31:25.121Z,64.99
2019-02-26T06:33:55.318Z,64.43
2019-02-26T06:36:26.422Z,64.15
2019-02-26T06:38:58.893Z,64.54
2019-02-26T06:41:29.298Z,64.40
2019-02-26T06:44:33.939Z,64.71
2019-02-26T06:47:04.795Z,64.59
2019-02-26T06:49:36.024Z,64.42
2019-02-26T06:52:08.432Z,64.30
2019-02-26T06:54:57.257Z,64.19
2019-02-26T06:57:25.708Z,64.68
2019-02-26T07:00:38.063Z,64.71
2019-02-26T07:03:16.230Z,64.67
2019-02-26T07:05:51.483Z,64.71
2019-02-26T07:08:23.665Z,64.81
2019-02-26T07:10:54.514Z,64.47
2019-02-26T07:13:24.688Z,64.70
2019-02-26T07:15:54.897Z,63.93
2019-02-26T07:18:42.203Z,63.78
2019-02-26T07:21:13.491Z,63.08
2019-02-26T07:23:56.430Z,62.45
2019-02-26T07:26:27.661Z,61.35
2019-02-26T07:28:58.770Z,60.16
2019-02-26T07:31:30.857Z,59.15
2019-02-26T07:34:26.858Z,58.62
2019-02-26T07:36:56.938Z,58.67
2019-02-26T07:39:59.828Z,59.49
2019-02-26T07:42:37.288Z,58.20
2019-02-26T07:45:15.290Z,57.25
2019-02-26T07:47:45.389Z,55.67
2019-02-26T07:50:17.354Z,54.80
2019-02-26T07:52:49.723Z,53.96
2019-02-26T07:55:27.367Z,53.53
2019-02-26T07:57:57.077Z,53.16
2019-02-26T08:00:27.644Z,51.75
2019-02-26T08:03:00.165Z,52.14
2019-02-26T08:05:30.731Z,51.56
2019-02-26T08:08:02.866Z,51.51
2019-02-26T08:10:42.809Z,52.04
2019-02-26T08:13:12.844Z,52.22
2019-02-26T08:15:45.112Z,51.61
2019-02-26T08:18:22.239Z,50.61
2019-02-26T08:20:54.644Z,50.50
2019-02-26T08:23:26.394Z,50.15
2019-02-26T08:26:10.064Z,49.99
2019-02-26T08:28:41.956Z,49.10
2019-02-26T08:31:17.520Z,48.00
2019-02-26T08:33:48.623Z,47.96
2019-02-26T08:36:18.423Z,48.44
2019-02-26T08:38:49.535Z,48.40
2019-02-26T08:41:19.737Z,48.62
2019-02-26T08:43:51.606Z,47.81
2019-02-26T08:46:44.396Z,46.70
2019-02-26T08:49:20.828Z,46.15
2019-02-26T08:51:51.238Z,45.23
2019-02-26T08:54:23.764Z,44.97
2019-02-26T08:56:53.369Z,44.88
2019-02-26T08:59:23.570Z,43.99
2019-02-26T09:01:53.784Z,43.42
2019-02-26T09:04:24.011Z,43.26
2019-02-26T09:06:54.689Z,43.83
2019-02-26T09:09:35.210Z,43.61
2019-02-26T09:12:07.413Z,43.30
2019-02-26T09:14:40.872Z,42.78
2019-02-26T09:17:20.892Z,42.51
2019-02-26T09:19:50.867Z,42.70
2019-02-26T09:22:23.388Z,42.38
2019-02-26T09:25:07.243Z,41.99
2019-02-26T09:27:42.719Z,41.76
2019-02-26T09:30:20.649Z,41.38
2019-02-26T09:32:54.149Z,41.36
2019-02-26T09:35:35.264Z,40.66
2019-02-26T09:38:05.477Z,40.97
2019-02-26T09:40:35.732Z,40.36
2019-02-26T09:43:06.321Z,40.20
2019-02-26T09:46:01.800Z,39.67
2019-02-26T09:48:33.621Z,39.87
2019-02-26T09:51:04.895Z,39.16
2019-02-26T09:53:35.930Z,38.00
2019-02-26T09:56:14.100Z,38.14
2019-02-26T09:58:46.493Z,37.34
2019-02-26T10:01:24.393Z,37.16
2019-02-26T10:03:56.069Z,36.57
2019-02-26T10:06:42.046Z,37.29
2019-02-26T10:09:18.728Z,36.77
2019-02-26T10:12:05.037Z,36.11
2019-02-26T10:14:38.968Z,36.00
2019-02-26T10:17:11.475Z,35.54
2019-02-26T10:19:42.937Z,36.04
2019-02-26T10:22:13.782Z,35.74
2019-02-26T10:24:44.019Z,35.47
2019-02-26T10:27:16.296Z,35.83
2019-02-26T10:29:49.930Z,35.64
2019-02-26T10:32:39.012Z,36.14
2019-02-26T10:35:15.858Z,35.88
2019-02-26T10:38:03.600Z,35.54
2019-02-26T10:40:53.500Z,35.91
2019-02-26T10:43:14.196Z,35.72
2019-02-26T10:45:47.580Z,35.89
2019-02-26T10:48:27.970Z,35.23
2019-02-26T10:50:59.324Z,35.73
2019-02-26T10:53:31.407Z,35.71
2019-02-26T10:56:01.603Z,34.90
2019-02-26T10:58:31.776Z,35.19
2019-02-26T11:01:05.224Z,34.51
2019-02-26T11:03:55.250Z,35.38
2019-02-26T11:06:27.429Z,34.14
2019-02-26T11:09:01.766Z,34.77
2019-02-26T11:11:35.090Z,35.30
2019-02-26T11:14:13.595Z,35.06
2019-02-26T11:16:48.609Z,35.79
2019-02-26T11:19:20.784Z,35.48
2019-02-26T11:22:05.315Z,34.27
2019-02-26T11:24:42.181Z,34.37
2019-02-26T11:27:12.383Z,34.48
2019-02-26T11:29:43.564Z,33.92
2019-02-26T11:32:21.737Z,32.28
2019-02-26T11:34:57.605Z,33.23
2019-02-26T11:37:35.199Z,33.57
2019-02-26T11:40:08.702Z,32.19
2019-02-26T11:42:39.993Z,31.77
2019-02-26T11:45:19.258Z,31.25
2019-02-26T11:47:49.268Z,30.36
2019-02-26T11:50:28.014Z,31.12
2019-02-26T11:52:57.957Z,31.44
2019-02-26T11:55:37.431Z,31.23
2019-02-26T11:58:09.981Z,31.42
2019-02-26T12:00:50.582Z,31.78
2019-02-26T12:03:37.126Z,31.58
2019-02-26T12:06:07.145Z,30.52
2019-02-26T12:08:43.102Z,31.62
2019-02-26T12:11:20.340Z,31.73
2019-02-26T12:14:00.424Z,30.66
2019-02-26T12:16:30.614Z,31.43
2019-02-26T12:19:01.801Z,30.81
2019-02-26T12:22:06.050Z,30.53
2019-02-26T12:24:37.305Z,30.18
2019-02-26T12:27:14.616Z,31.34
2019-02-26T12:29:45.411Z,30.21
2019-02-26T12:32:16.994Z,30.03
2019-02-26T12:34:48.444Z,29.63
2019-02-26T12:37:25.472Z,30.16
2019-02-26T12:40:23.331Z,29.68
2019-02-26T12:42:52.393Z,29.60
2019-02-26T12:45:41.333Z,29.82
2019-02-26T12:48:15.620Z,30.00
2019-02-26T12:50:52.124Z,29.44
2019-02-26T12:53:54.661Z,29.53
2019-02-26T12:56:28.091Z,29.46
2019-02-26T12:59:13.130Z,28.81
2019-02-26T13:01:46.328Z,29.62
2019-02-26T13:04:19.585Z,29.23
2019-02-26T13:07:00.521Z,29.04
2019-02-26T13:09:33.820Z,28.75
2019-02-26T13:12:04.935Z,29.20
2019-02-26T13:14:35.151Z,28.93
2019-02-26T13:17:13.989Z,30.31
2019-02-26T13:19:54.703Z,30.58
2019-02-26T13:22:22.424Z,30.01
2019-02-26T13:24:52.626Z,29.95
2019-02-26T13:27:22.876Z,29.44
2019-02-26T13:29:57.527Z,29.71
2019-02-26T13:32:32.237Z,29.11
2019-02-26T13:35:04.257Z,29.57
2019-02-26T13:37:36.614Z,29.17
2019-02-26T13:40:15.804Z,29.73
2019-02-26T13:42:49.903Z,30.01
2019-02-26T13:45:26.299Z,29.06
2019-02-26T13:48:01.113Z,29.54
2019-02-26T13:50:29.810Z,29.79
2019-02-26T13:53:00.911Z,29.36
2019-02-26T13:55:37.467Z,29.80
2019-02-26T13:58:11.801Z,29.89
2019-02-26T14:01:09.920Z,29.41
2019-02-26T14:03:44.136Z,29.96
2019-02-26T14:06:14.478Z,29.51
2019-02-26T14:08:45.594Z,30.32
2019-02-26T14:11:16.719Z,29.55
2019-02-26T14:13:48.901Z,29.36
2019-02-26T14:16:32.650Z,29.84
2019-02-26T14:19:12.636Z,29.52
2019-02-26T14:21:42.839Z,29.86
2019-02-26T14:24:19.263Z,29.28
2019-02-26T14:26:53.714Z,29.11
2019-02-26T14:29:33.815Z,29.27
2019-02-26T14:32:04.021Z,28.83
2019-02-26T14:34:34.213Z,28.80
2019-02-26T14:37:05.350Z,28.84
2019-02-26T14:39:41.462Z,28.44
2019-02-26T14:42:11.660Z,28.62
2019-02-26T14:44:41.860Z,28.83
2019-02-26T14:47:12.077Z,28.92
2019-02-26T14:49:43.241Z,29.00
2019-02-26T14:52:14.364Z,28.90
2019-02-26T14:54:56.700Z,28.99
2019-02-26T14:57:26.916Z,29.55
2019-02-26T15:00:08.233Z,29.62
2019-02-26T15:02:40.954Z,29.24
2019-02-26T15:05:21.279Z,29.90
2019-02-26T15:07:51.435Z,29.72
2019-02-26T15:10:27.740Z,29.72
2019-02-26T15:12:58.776Z,29.92
2019-02-26T15:15:42.315Z,30.12
2019-02-26T15:18:12.611Z,29.89
2019-02-26T15:20:46.584Z,30.04
2019-02-26T15:23:24.273Z,30.09
2019-02-26T15:25:54.453Z,29.10
2019-02-26T15:28:24.654Z,28.97
2019-02-26T15:30:55.018Z,29.17
2019-02-26T15:33:39.181Z,28.70
2019-02-26T15:36:09.664Z,28.75
2019-02-26T15:38:45.660Z,28.14
2019-02-26T15:41:15.946Z,28.30
2019-02-26T15:43:49.192Z,28.89
2019-02-26T15:46:24.043Z,28.68
2019-02-26T15:48:54.259Z,28.17
2019-02-26T15:51:31.000Z,28.67
2019-02-26T15:54:01.206Z,29.09
2019-02-26T15:56:36.683Z,29.64
2019-02-26T15:59:07.922Z,28.76
2019-02-26T16:01:38.219Z,28.77
2019-02-26T16:04:09.393Z,28.58
2019-02-26T16:06:39.584Z,29.17
2019-02-26T16:09:20.166Z,29.79
2019-02-26T16:12:04.098Z,30.44
2019-02-26T16:14:38.614Z,31.09
2019-02-26T16:17:13.097Z,30.89
2019-02-26T16:19:45.299Z,31.33
2019-02-26T16:25:51.694Z,32.11
2019-02-26T16:28:27.275Z,30.61
2019-02-26T16:30:57.271Z,31.43
2019-02-26T16:33:27.460Z,32.67
2019-02-26T16:36:31.677Z,34.02
2019-02-26T16:39:14.941Z,34.69
2019-02-26T16:41:57.216Z,34.23
2019-02-26T16:44:27.456Z,34.50
2019-02-26T16:47:05.242Z,34.16
2019-02-26T16:49:42.228Z,34.92
2019-02-26T16:52:52.919Z,35.32
2019-02-26T16:55:25.060Z,35.80
2019-02-26T16:57:56.164Z,36.26
2019-02-26T17:00:27.506Z,36.85
2019-02-26T17:03:31.717Z,37.64
2019-02-26T17:06:06.289Z,37.80
2019-02-26T17:08:53.530Z,38.01
2019-02-26T17:11:35.557Z,38.60
2019-02-26T17:14:07.723Z,39.07
2019-02-26T17:16:37.920Z,39.39
2019-02-26T17:19:08.163Z,39.04
2019-02-26T17:21:40.414Z,39.52
2019-02-26T17:24:21.299Z,40.18
2019-02-26T17:26:59.005Z,40.63
2019-02-26T17:29:31.287Z,41.07
2019-02-26T17:32:04.031Z,40.89
2019-02-26T17:34:33.426Z,41.58
2019-02-26T17:37:11.559Z,41.59
2019-02-26T17:39:41.750Z,41.88
2019-02-26T17:42:27.372Z,42.01
2019-02-26T17:44:57.571Z,42.19
2019-02-26T17:47:27.782Z,42.64
2019-02-26T17:50:17.841Z,42.29
2019-02-26T17:52:48.042Z,42.56
2019-02-26T17:55:18.257Z,42.98
2019-02-26T17:57:48.458Z,43.10
2019-02-26T18:00:22.169Z,43.01
2019-02-26T18:03:07.252Z,43.29
2019-02-26T18:05:39.372Z,43.56
2019-02-26T18:08:09.036Z,43.88
2019-02-26T18:10:39.217Z,44.49
2019-02-26T18:13:09.424Z,44.69
2019-02-26T18:15:40.722Z,45.16
2019-02-26T18:18:15.382Z,45.29
2019-02-26T18:20:45.574Z,45.90
2019-02-26T18:23:15.780Z,45.66
2019-02-26T18:25:45.974Z,46.03
2019-02-26T18:28:22.563Z,45.78
2019-02-26T18:30:52.766Z,45.91
2019-02-26T18:33:25.088Z,46.03
2019-02-26T18:35:56.160Z,46.24
2019-02-26T18:38:39.171Z,46.40
2019-02-26T18:41:09.424Z,46.70
2019-02-26T18:43:47.524Z,47.13
2019-02-26T18:46:33.362Z,47.41
2019-02-26T18:49:25.900Z,47.79
2019-02-26T18:51:56.088Z,47.70
2019-02-26T18:54:26.296Z,47.71
2019-02-26T18:57:26.960Z,48.34
2019-02-26T18:59:57.257Z,48.72
2019-02-26T19:02:27.510Z,48.85
2019-02-26T19:05:03.532Z,49.05
2019-02-26T19:07:35.359Z,49.51
2019-02-26T19:10:20.759Z,49.60
2019-02-26T19:12:49.872Z,49.93
2019-02-26T19:15:25.407Z,49.94
2019-02-26T19:17:57.031Z,50.22
2019-02-26T19:20:35.720Z,50.35
2019-02-26T19:23:05.936Z,50.29
2019-02-26T19:25:36.136Z,50.63
2019-02-26T19:28:09.942Z,50.67
2019-02-26T19:30:40.231Z,50.74
2019-02-26T19:33:18.738Z,50.98
2019-02-26T19:35:48.766Z,50.79
2019-02-26T19:38:18.956Z,51.09
2019-02-26T19:40:55.113Z,51.19
2019-02-26T19:43:41.913Z,51.30
2019-02-26T19:46:12.110Z,51.70
2019-02-26T19:48:42.379Z,52.02
2019-02-26T19:51:12.575Z,52.25
2019-02-26T19:53:42.772Z,52.27
2019-02-26T19:56:23.604Z,52.47
2019-02-26T19:58:54.501Z,52.35
2019-02-26T20:01:26.635Z,52.64
2019-02-26T20:03:56.839Z,52.57
2019-02-26T20:06:52.191Z,53.11
2019-02-26T20:09:41.662Z,52.87
2019-02-26T20:12:18.385Z,52.84
2019-02-26T20:15:13.331Z,52.81
2019-02-26T20:17:43.891Z,53.12
2019-02-26T20:20:21.174Z,53.34
2019-02-26T20:22:51.333Z,53.98
2019-02-26T20:25:21.684Z,54.41
2019-02-26T20:27:54.630Z,54.46
2019-02-26T20:30:24.916Z,54.83
2019-02-26T20:32:55.264Z,54.73
2019-02-26T20:35:25.447Z,54.93
2019-02-26T20:38:08.683Z,55.15
2019-02-26T20:41:22.012Z,55.56
2019-02-26T20:43:51.749Z,55.24
2019-02-26T20:46:25.224Z,55.42
2019-02-26T20:49:30.888Z,55.35
2019-02-26T20:52:05.900Z,55.52
2019-02-26T20:54:36.258Z,55.72
2019-02-26T20:57:15.920Z,55.98
2019-02-26T20:59:46.118Z,55.92
2019-02-26T21:02:17.449Z,56.21
2019-02-26T21:04:49.599Z,56.64
2019-02-26T21:07:24.561Z,56.34
2019-02-26T21:10:16.220Z,56.28
2019-02-26T21:12:51.422Z,56.32
2019-02-26T21:15:22.339Z,56.67
2019-02-26T21:19:42.734Z,56.36
2019-02-26T21:22:13.425Z,56.98
2019-02-26T21:24:47.831Z,56.93
2019-02-26T21:27:18.688Z,56.89
2019-02-26T21:29:49.450Z,57.23
2019-02-26T21:32:22.846Z,57.45
2019-02-26T21:34:54.162Z,57.52
2019-02-26T21:37:24.886Z,57.18
2019-02-26T21:40:08.128Z,58.00
2019-02-26T21:42:38.896Z,58.44
2019-02-26T21:45:15.356Z,58.13
2019-02-26T21:47:52.782Z,58.46
2019-02-26T21:50:23.782Z,58.34
2019-02-26T21:53:01.709Z,58.79
2019-02-26T21:55:32.678Z,58.96
2019-02-26T21:58:03.348Z,59.29
2019-02-26T22:00:39.803Z,58.83
2019-02-26T22:03:29.204Z,58.87
2019-02-26T22:06:05.772Z,59.33
2019-02-26T22:08:49.294Z,58.84
2019-02-26T22:11:20.185Z,58.96
2019-02-26T22:13:50.927Z,59.02
2019-02-26T22:16:22.007Z,59.31
2019-02-26T22:18:52.653Z,59.59
2019-02-26T22:21:29.056Z,59.49
2019-02-26T22:24:07.007Z,59.28
2019-02-26T22:26:38.202Z,59.48
2019-02-26T22:29:08.867Z,59.58
2019-02-26T22:31:39.975Z,59.51
2019-02-26T22:34:10.830Z,59.62
2019-02-26T22:36:41.422Z,59.09
2019-02-26T22:39:15.241Z,58.66
2019-02-26T22:41:46.145Z,58.47
2019-02-26T22:44:18.705Z,58.30
2019-02-26T22:50:08.455Z,57.87
2019-02-26T22:52:39.327Z,58.23
2019-02-26T22:55:10.346Z,58.15
2019-02-26T22:57:41.011Z,58.77
2019-02-26T23:00:48.265Z,58.52
2019-02-26T23:03:18.391Z,58.49
2019-02-26T23:05:58.745Z,58.96
2019-02-26T23:08:27.741Z,58.46
2019-02-26T23:11:02.154Z,58.42
2019-02-26T23:13:33.189Z,58.24
2019-02-26T23:16:05.146Z,57.97
2019-02-26T23:18:36.275Z,57.93
2019-02-26T23:21:07.285Z,58.52
2019-02-26T23:23:44.123Z,57.98
2019-02-26T23:26:15.238Z,57.60
2019-02-26T23:28:54.494Z,57.65
2019-02-26T23:31:24.803Z,57.66
2019-02-26T23:33:56.128Z,58.27
2019-02-26T23:36:28.536Z,57.68
2019-02-26T23:38:59.087Z,57.37
2019-02-26T23:41:30.798Z,57.45
2019-02-26T23:44:02.132Z,56.99
2019-02-26T23:46:32.751Z,57.43
2019-02-26T23:49:03.565Z,57.32
2019-02-26T23:51:34.255Z,57.92
2019-02-26T23:54:10.606Z,57.78
2019-02-26T23:56:41.302Z,57.29
2019-02-26T23:59:23.105Z,57.63
